createdAt,value
2023-03-29T00:01:06.380Z,95263.56
2023-03-29T00:03:32.890Z,95268.66
2023-03-29T00:05:59.453Z,95281.94
2023-03-29T00:08:26.337Z,95281.78
2023-03-29T00:10:52.840Z,95269.22
2023-03-29T00:13:21.870Z,95258.44
2023-03-29T00:15:48.261Z,95276.56
2023-03-29T00:18:14.667Z,95264.56
2023-03-29T00:20:41.363Z,95275.63
2023-03-29T00:23:08.006Z,95266.94
2023-03-29T00:25:34.462Z,95266.97
2023-03-29T00:28:00.847Z,95276.72
2023-03-29T00:30:27.241Z,95272.25
2023-03-29T00:32:53.691Z,95269.94
2023-03-29T00:35:20.173Z,95254.94
2023-03-29T00:37:46.749Z,95236.16
2023-03-29T00:40:13.129Z,95260.56
2023-03-29T00:42:40.519Z,95275.41
2023-03-29T00:45:06.874Z,95280.69
2023-03-29T00:47:33.268Z,95285.94
2023-03-29T00:49:59.621Z,95267.28
2023-03-29T00:52:26.011Z,95250.31
2023-03-29T00:54:52.519Z,95267.59
2023-03-29T00:57:18.972Z,95269.91
2023-03-29T00:59:45.376Z,95258.19
2023-03-29T01:02:11.862Z,95258.03
2023-03-29T01:04:38.292Z,95232.78
2023-03-29T01:07:04.913Z,95221.56
2023-03-29T01:09:33.664Z,95194.22
2023-03-29T01:12:00.012Z,95203.09
2023-03-29T01:14:26.518Z,95213.97
2023-03-29T01:16:52.978Z,95204.25
2023-03-29T01:19:19.368Z,95207.22
2023-03-29T01:21:45.746Z,95203.22
2023-03-29T01:24:12.132Z,95210.81
2023-03-29T01:26:38.499Z,95229.31
2023-03-29T01:29:04.844Z,95246.25
2023-03-29T01:31:31.370Z,95240.94
2023-03-29T01:33:57.991Z,95236.00
2023-03-29T01:36:24.369Z,95249.50
2023-03-29T01:38:50.773Z,95254.44
2023-03-29T01:41:17.241Z,95212.25
2023-03-29T01:43:43.738Z,95202.22
2023-03-29T01:46:10.159Z,95195.94
2023-03-29T01:48:36.563Z,95194.34
2023-03-29T01:51:03.067Z,95190.03
2023-03-29T01:53:30.010Z,95190.53
2023-03-29T01:55:56.455Z,95166.66
2023-03-29T01:58:22.971Z,95181.66
2023-03-29T02:00:49.731Z,95182.66
2023-03-29T02:03:16.230Z,95197.63
2023-03-29T02:05:42.979Z,95206.06
2023-03-29T02:08:09.590Z,95221.06
2023-03-29T02:10:36.149Z,95212.16
2023-03-29T02:13:02.807Z,95188.41
2023-03-29T02:15:29.262Z,95189.56
2023-03-29T02:17:56.504Z,95173.22
2023-03-29T02:20:22.980Z,95162.19
2023-03-29T02:22:49.465Z,95166.31
2023-03-29T02:25:15.985Z,95168.16
2023-03-29T02:27:42.331Z,95187.81
2023-03-29T02:30:08.785Z,95176.09
2023-03-29T02:32:35.736Z,95192.75
2023-03-29T02:35:02.369Z,95220.19
2023-03-29T02:37:30.062Z,95198.47
2023-03-29T02:39:57.357Z,95199.00
2023-03-29T02:42:23.726Z,95185.97
2023-03-29T02:44:50.349Z,95171.66
2023-03-29T02:47:16.755Z,95161.25
2023-03-29T02:49:43.118Z,95162.91
2023-03-29T02:52:09.495Z,95162.78
2023-03-29T02:54:38.350Z,95176.78
2023-03-29T02:57:04.909Z,95174.31
2023-03-29T02:59:31.675Z,95191.66
2023-03-29T03:01:58.185Z,95188.34
2023-03-29T03:04:24.959Z,95200.22
2023-03-29T03:06:51.359Z,95189.31
2023-03-29T03:09:17.923Z,95177.44
2023-03-29T03:11:44.409Z,95182.72
2023-03-29T03:14:12.275Z,95177.13
2023-03-29T03:16:38.797Z,95174.16
2023-03-29T03:19:05.296Z,95174.78
2023-03-29T03:21:31.727Z,95165.22
2023-03-29T03:23:58.134Z,95155.88
2023-03-29T03:26:24.517Z,95149.59
2023-03-29T03:28:51.170Z,95168.41
2023-03-29T03:31:17.615Z,95163.59
2023-03-29T03:33:44.069Z,95161.88
2023-03-29T03:36:10.766Z,95162.88
2023-03-29T03:38:37.167Z,95157.56
2023-03-29T03:41:03.689Z,95153.09
2023-03-29T03:43:30.203Z,95147.63
2023-03-29T03:45:56.655Z,95150.47
2023-03-29T03:48:23.472Z,95154.00
2023-03-29T03:50:49.933Z,95162.22
2023-03-29T03:53:16.383Z,95142.22
2023-03-29T03:55:43.206Z,95147.03
2023-03-29T03:58:09.577Z,95146.16
2023-03-29T04:00:35.968Z,95145.97
2023-03-29T04:03:02.515Z,95141.00
2023-03-29T04:05:28.960Z,95133.13
2023-03-29T04:07:55.845Z,95129.13
2023-03-29T04:10:22.402Z,95126.63
2023-03-29T04:12:49.781Z,95119.34
2023-03-29T04:15:18.576Z,95106.91
2023-03-29T04:17:45.404Z,95117.59
2023-03-29T04:20:12.198Z,95122.41
2023-03-29T04:22:38.752Z,95128.28
2023-03-29T04:25:05.282Z,95124.97
2023-03-29T04:27:33.114Z,95119.19
2023-03-29T04:29:59.636Z,95129.25
2023-03-29T04:32:26.295Z,95118.97
2023-03-29T04:34:55.184Z,95121.94
2023-03-29T04:37:24.198Z,95123.47
2023-03-29T04:39:51.567Z,95114.34
2023-03-29T04:42:17.987Z,95103.41
2023-03-29T04:44:44.688Z,95109.88
2023-03-29T04:47:11.278Z,95109.69
2023-03-29T04:49:37.908Z,95105.19
2023-03-29T04:52:04.514Z,95097.88
2023-03-29T04:54:30.965Z,95101.88
2023-03-29T04:56:57.979Z,95113.19
2023-03-29T04:59:24.575Z,95118.13
2023-03-29T05:01:51.418Z,95119.38
2023-03-29T05:04:17.838Z,95116.94
2023-03-29T05:06:44.294Z,95113.94
2023-03-29T05:09:11.048Z,95114.75
2023-03-29T05:11:38.639Z,95107.31
2023-03-29T05:14:09.590Z,95107.31
2023-03-29T05:16:36.838Z,95113.91
2023-03-29T05:19:03.357Z,95115.34
2023-03-29T05:21:29.917Z,95113.41
2023-03-29T05:23:56.525Z,95109.56
2023-03-29T05:26:22.988Z,95110.81
2023-03-29T05:28:49.449Z,95112.09
2023-03-29T05:31:16.923Z,95116.53
2023-03-29T05:33:47.753Z,95127.06
2023-03-29T05:36:14.229Z,95129.28
2023-03-29T05:38:40.605Z,95130.25
2023-03-29T05:41:07.393Z,95133.22
2023-03-29T05:43:34.802Z,95127.66
2023-03-29T05:46:01.792Z,95128.38
2023-03-29T05:48:29.050Z,95133.00
2023-03-29T05:50:57.766Z,95124.56
2023-03-29T05:53:25.278Z,95126.94
2023-03-29T05:55:51.732Z,95124.47
2023-03-29T05:58:18.348Z,95127.47
2023-03-29T06:00:44.854Z,95129.41
2023-03-29T06:03:20.820Z,95130.72
2023-03-29T06:05:49.645Z,95138.59
2023-03-29T06:08:16.499Z,95145.00
2023-03-29T06:10:43.973Z,95148.75
2023-03-29T06:13:10.317Z,95157.00
2023-03-29T06:15:36.661Z,95159.28
2023-03-29T06:18:03.311Z,95157.63
2023-03-29T06:20:32.964Z,95146.72
2023-03-29T06:22:59.324Z,95165.56
2023-03-29T06:25:25.675Z,95162.56
2023-03-29T06:27:52.095Z,95156.97
2023-03-29T06:30:18.494Z,95166.75
2023-03-29T06:32:45.145Z,95172.53
2023-03-29T06:35:12.208Z,95164.25
2023-03-29T06:37:38.608Z,95167.38
2023-03-29T06:40:06.057Z,95162.16
2023-03-29T06:42:32.698Z,95158.00
2023-03-29T06:44:59.164Z,95160.59
2023-03-29T06:47:25.803Z,95156.22
2023-03-29T06:49:53.270Z,95152.06
2023-03-29T06:52:22.222Z,95149.06
2023-03-29T06:54:49.789Z,95159.75
2023-03-29T06:57:16.822Z,95155.19
2023-03-29T06:59:43.253Z,95158.47
2023-03-29T07:02:11.804Z,95150.19
2023-03-29T07:04:38.424Z,95155.88
2023-03-29T07:07:04.841Z,95150.13
2023-03-29T07:09:32.336Z,95153.38
2023-03-29T07:11:58.724Z,95149.94
2023-03-29T07:14:25.397Z,95155.31
2023-03-29T07:16:55.463Z,95152.31
2023-03-29T07:19:21.928Z,95159.47
2023-03-29T07:21:48.324Z,95156.03
2023-03-29T07:24:15.701Z,95153.78
2023-03-29T07:26:52.277Z,95161.44
2023-03-29T07:29:22.980Z,95161.06
2023-03-29T07:31:49.451Z,95157.13
2023-03-29T07:34:15.794Z,95172.56
2023-03-29T07:36:42.198Z,95174.97
2023-03-29T07:39:11.174Z,95174.91
2023-03-29T07:41:39.961Z,95177.03
2023-03-29T07:44:06.658Z,95187.75
2023-03-29T07:46:33.222Z,95176.03
2023-03-29T07:49:00.115Z,95183.38
2023-03-29T07:51:28.281Z,95186.75
2023-03-29T07:53:55.206Z,95196.19
2023-03-29T07:56:21.646Z,95191.78
2023-03-29T07:58:49.057Z,95199.94
2023-03-29T08:01:17.958Z,95202.06
2023-03-29T08:03:53.324Z,95196.00
2023-03-29T08:06:19.776Z,95200.94
2023-03-29T08:08:46.178Z,95193.84
2023-03-29T08:11:15.061Z,95200.00
2023-03-29T08:13:41.514Z,95204.91
2023-03-29T08:16:07.961Z,95203.81
2023-03-29T08:18:35.008Z,95203.91
2023-03-29T08:21:01.887Z,95211.22
2023-03-29T08:23:31.369Z,95200.59
2023-03-29T08:25:57.736Z,95219.97
2023-03-29T08:28:24.189Z,95210.69
2023-03-29T08:30:50.706Z,95202.25
2023-03-29T08:33:17.199Z,95195.09
2023-03-29T08:35:43.765Z,95199.13
2023-03-29T08:38:10.385Z,95191.66
2023-03-29T08:40:36.830Z,95193.22
2023-03-29T08:43:03.296Z,95193.22
2023-03-29T08:45:29.787Z,95200.56
2023-03-29T08:47:56.291Z,95204.25
2023-03-29T08:50:22.669Z,95200.34
2023-03-29T08:52:49.055Z,95195.72
2023-03-29T08:55:15.539Z,95200.97
2023-03-29T08:57:42.959Z,95197.56
2023-03-29T09:00:09.396Z,95205.09
2023-03-29T09:02:35.817Z,95212.34
2023-03-29T09:05:02.281Z,95208.84
2023-03-29T09:07:28.916Z,95202.94
2023-03-29T09:09:55.373Z,95206.94
2023-03-29T09:12:29.252Z,95211.28
2023-03-29T09:14:55.656Z,95205.56
2023-03-29T09:17:22.057Z,95204.94
2023-03-29T09:19:48.446Z,95193.91
2023-03-29T09:22:14.860Z,95191.00
2023-03-29T09:24:41.228Z,95186.91
2023-03-29T09:27:07.594Z,95197.44
2023-03-29T09:29:34.197Z,95193.75
2023-03-29T09:32:01.550Z,95180.63
2023-03-29T09:34:28.061Z,95187.81
2023-03-29T09:36:55.288Z,95184.09
2023-03-29T09:39:22.835Z,95191.69
2023-03-29T09:41:49.223Z,95174.97
2023-03-29T09:46:47.425Z,95181.91
2023-03-29T09:49:16.072Z,95175.53
2023-03-29T09:51:43.646Z,95172.28
2023-03-29T09:54:10.153Z,95170.22
2023-03-29T09:56:36.749Z,95158.28
2023-03-29T09:59:04.136Z,95171.22
2023-03-29T10:01:30.545Z,95162.19
2023-03-29T10:03:56.930Z,95171.19
2023-03-29T10:06:23.434Z,95166.88
2023-03-29T10:08:50.113Z,95168.28
2023-03-29T10:11:26.239Z,95160.78
2023-03-29T10:13:52.810Z,95164.06
2023-03-29T10:16:19.479Z,95160.34
2023-03-29T10:18:46.360Z,95163.97
2023-03-29T10:21:12.760Z,95144.44
2023-03-29T10:23:41.235Z,95154.28
2023-03-29T10:26:07.874Z,95152.56
2023-03-29T10:28:34.273Z,95135.97
2023-03-29T10:31:02.007Z,95136.66
2023-03-29T10:33:28.507Z,95139.66
2023-03-29T10:35:54.940Z,95135.19
2023-03-29T10:38:21.351Z,95141.13
2023-03-29T10:40:47.844Z,95141.91
2023-03-29T10:43:15.249Z,95135.19
2023-03-29T10:45:41.730Z,95127.44
2023-03-29T10:48:08.201Z,95137.75
2023-03-29T10:50:34.579Z,95139.16
2023-03-29T10:53:01.109Z,95146.09
2023-03-29T10:55:27.531Z,95139.94
2023-03-29T10:57:53.900Z,95137.81
2023-03-29T11:00:20.296Z,95139.09
2023-03-29T11:02:46.987Z,95146.56
2023-03-29T11:05:13.748Z,95146.13
2023-03-29T11:07:40.259Z,95153.81
2023-03-29T11:10:06.661Z,95145.94
2023-03-29T11:12:33.065Z,95146.50
2023-03-29T11:14:59.743Z,95144.78
2023-03-29T11:17:26.380Z,95150.50
2023-03-29T11:19:52.944Z,95146.25
2023-03-29T11:22:19.422Z,95150.34
2023-03-29T11:24:46.048Z,95146.00
2023-03-29T11:27:12.642Z,95151.25
2023-03-29T11:29:41.083Z,95137.28
2023-03-29T11:32:07.508Z,95147.66
2023-03-29T11:34:34.136Z,95144.69
2023-03-29T11:37:05.956Z,95144.88
2023-03-29T11:39:32.774Z,95151.09
2023-03-29T11:41:59.219Z,95152.50
2023-03-29T11:44:25.971Z,95163.78
2023-03-29T11:46:53.430Z,95155.00
2023-03-29T11:49:22.219Z,95163.34
2023-03-29T11:51:51.217Z,95173.63
2023-03-29T11:54:20.041Z,95160.50
2023-03-29T11:56:46.794Z,95165.47
2023-03-29T11:59:13.539Z,95165.41
2023-03-29T12:01:40.019Z,95166.63
2023-03-29T12:04:06.675Z,95149.72
2023-03-29T12:06:33.492Z,95155.44
2023-03-29T12:08:59.998Z,95153.63
2023-03-29T12:11:26.466Z,95149.66
2023-03-29T12:13:52.852Z,95142.97
2023-03-29T12:16:19.475Z,95149.44
2023-03-29T12:18:46.097Z,95147.25
2023-03-29T12:21:12.448Z,95131.38
2023-03-29T12:23:38.847Z,95136.47
2023-03-29T12:26:05.449Z,95137.50
2023-03-29T12:28:31.841Z,95134.03
2023-03-29T12:30:58.396Z,95136.19
2023-03-29T12:33:25.006Z,95119.50
2023-03-29T12:35:51.378Z,95133.09
2023-03-29T12:38:17.909Z,95134.44
2023-03-29T12:40:44.585Z,95130.91
2023-03-29T12:43:13.212Z,95134.13
2023-03-29T12:45:39.821Z,95132.91
2023-03-29T12:48:06.510Z,95125.34
2023-03-29T12:50:32.936Z,95117.72
2023-03-29T12:52:59.402Z,95113.94
2023-03-29T12:55:26.169Z,95105.59
2023-03-29T12:57:52.557Z,95100.75
2023-03-29T13:00:18.980Z,95094.97
2023-03-29T13:02:45.775Z,95094.28
2023-03-29T13:05:12.257Z,95102.78
2023-03-29T13:07:39.966Z,95093.56
2023-03-29T13:10:06.324Z,95095.34
2023-03-29T13:12:33.645Z,95096.97
2023-03-29T13:15:00.123Z,95095.25
2023-03-29T13:17:26.532Z,95091.81
2023-03-29T13:19:53.134Z,95084.38
2023-03-29T13:22:19.847Z,95088.13
2023-03-29T13:24:46.256Z,95073.69
2023-03-29T13:27:12.724Z,95071.94
2023-03-29T13:29:40.150Z,95072.38
2023-03-29T13:32:06.515Z,95063.53
2023-03-29T13:34:32.894Z,95065.47
2023-03-29T13:36:59.324Z,95065.06
2023-03-29T13:39:25.774Z,95060.31
2023-03-29T13:41:52.130Z,95060.38
2023-03-29T13:44:18.552Z,95052.19
2023-03-29T13:46:45.015Z,95068.66
2023-03-29T13:49:11.532Z,95070.75
2023-03-29T13:51:38.910Z,95059.06
2023-03-29T13:54:06.812Z,95059.31
2023-03-29T13:56:33.190Z,95061.88
2023-03-29T13:58:59.542Z,95060.47
2023-03-29T14:01:26.036Z,95060.13
2023-03-29T14:03:52.601Z,95046.94
2023-03-29T14:06:18.997Z,95044.91
2023-03-29T14:08:45.372Z,95040.41
2023-03-29T14:11:11.772Z,95038.66
2023-03-29T14:13:38.378Z,95036.66
2023-03-29T14:16:05.166Z,95029.69
2023-03-29T14:18:32.723Z,95035.78
2023-03-29T14:20:59.149Z,95027.72
2023-03-29T14:23:25.541Z,95030.63
2023-03-29T14:25:52.390Z,95023.97
2023-03-29T14:28:18.742Z,95030.06
2023-03-29T14:30:45.539Z,95030.06
2023-03-29T14:33:12.174Z,95025.47
2023-03-29T14:35:38.612Z,95038.88
2023-03-29T14:38:05.164Z,95037.03
2023-03-29T14:40:31.785Z,95030.97
2023-03-29T14:42:58.171Z,95021.41
2023-03-29T14:45:24.577Z,95016.66
2023-03-29T14:47:51.047Z,95019.88
2023-03-29T14:50:17.769Z,95015.78
2023-03-29T14:52:46.511Z,95012.19
2023-03-29T14:55:13.750Z,95015.22
2023-03-29T14:57:40.199Z,95008.47
2023-03-29T15:00:07.602Z,95011.03
2023-03-29T15:02:34.242Z,95010.09
2023-03-29T15:05:01.460Z,95002.25
2023-03-29T15:07:28.362Z,94992.91
2023-03-29T15:09:54.883Z,95001.22
2023-03-29T15:12:21.248Z,94999.63
2023-03-29T15:14:47.811Z,95007.88
2023-03-29T15:17:14.172Z,94997.72
2023-03-29T15:19:40.574Z,94997.72
2023-03-29T15:22:07.030Z,94999.31
2023-03-29T15:24:33.663Z,95004.25
2023-03-29T15:27:00.198Z,95002.06
2023-03-29T15:29:26.614Z,95006.41
2023-03-29T15:31:53.247Z,94991.28
2023-03-29T15:34:19.648Z,94998.16
2023-03-29T15:36:48.911Z,95003.41
2023-03-29T15:39:15.863Z,95002.00
2023-03-29T15:41:42.284Z,95007.31
2023-03-29T15:44:10.750Z,95007.84
2023-03-29T15:46:37.149Z,95014.81
2023-03-29T15:49:03.556Z,95003.47
2023-03-29T15:51:29.905Z,94999.66
2023-03-29T15:53:57.276Z,95004.25
2023-03-29T15:56:23.765Z,94998.94
2023-03-29T15:58:50.145Z,94995.84
2023-03-29T16:01:16.551Z,94988.16
2023-03-29T16:03:43.875Z,94991.88
2023-03-29T16:06:11.214Z,94985.72
2023-03-29T16:08:37.589Z,94989.16
2023-03-29T16:11:03.933Z,94996.94
2023-03-29T16:13:30.343Z,94988.31
2023-03-29T16:15:57.846Z,94980.06
2023-03-29T16:18:26.777Z,94984.63
2023-03-29T16:20:53.225Z,94972.63
2023-03-29T16:23:19.756Z,94971.44
2023-03-29T16:25:46.108Z,94976.81
2023-03-29T16:28:12.565Z,94976.88
2023-03-29T16:30:39.053Z,94972.44
2023-03-29T16:33:05.553Z,94965.25
2023-03-29T16:35:32.128Z,94963.25
2023-03-29T16:37:58.656Z,94962.56
2023-03-29T16:40:25.229Z,94960.34
2023-03-29T16:42:52.296Z,94966.59
2023-03-29T16:45:18.675Z,94958.44
2023-03-29T16:47:45.091Z,94967.13
2023-03-29T16:50:14.088Z,94958.53
2023-03-29T16:52:40.694Z,94963.22
2023-03-29T16:55:08.222Z,94963.53
2023-03-29T16:57:34.579Z,94962.97
2023-03-29T17:00:00.989Z,94956.53
2023-03-29T17:02:27.549Z,94958.09
2023-03-29T17:04:54.244Z,94953.53
2023-03-29T17:07:20.857Z,94954.50
2023-03-29T17:09:48.809Z,94956.88
2023-03-29T17:12:35.449Z,94975.00
2023-03-29T17:15:04.708Z,94986.88
2023-03-29T17:17:32.255Z,94977.72
2023-03-29T17:19:58.896Z,94969.78
2023-03-29T17:22:26.233Z,94965.44
2023-03-29T17:24:52.572Z,94948.22
2023-03-29T17:27:21.238Z,94946.59
2023-03-29T17:29:48.249Z,94947.00
2023-03-29T17:34:58.019Z,94948.94
2023-03-29T17:37:24.420Z,94947.50
2023-03-29T17:39:50.799Z,94950.81
2023-03-29T17:42:17.514Z,94956.59
2023-03-29T17:44:44.254Z,94961.16
2023-03-29T17:47:10.638Z,94956.50
2023-03-29T17:49:36.984Z,94962.72
2023-03-29T17:52:03.330Z,94945.72
2023-03-29T17:54:30.194Z,94945.97
2023-03-29T17:56:56.599Z,94953.59
2023-03-29T17:59:23.010Z,94965.13
2023-03-29T18:01:49.543Z,94963.31
2023-03-29T18:04:15.983Z,94963.72
2023-03-29T18:06:43.213Z,94965.78
2023-03-29T18:09:09.815Z,94961.28
2023-03-29T18:11:36.552Z,94961.47
2023-03-29T18:14:02.941Z,94958.63
2023-03-29T18:16:29.550Z,94967.88
2023-03-29T18:18:56.175Z,94967.09
2023-03-29T18:21:22.690Z,94958.50
2023-03-29T18:23:49.205Z,94955.44
2023-03-29T18:26:16.309Z,94957.50
2023-03-29T18:28:42.909Z,94955.28
2023-03-29T18:31:09.374Z,94974.16
2023-03-29T18:33:35.930Z,94986.88
2023-03-29T18:36:02.875Z,94989.97
2023-03-29T18:38:31.318Z,94990.16
2023-03-29T18:40:57.804Z,94976.63
2023-03-29T18:43:24.354Z,94970.47
2023-03-29T18:45:51.968Z,94977.03
2023-03-29T18:48:18.585Z,94974.38
2023-03-29T18:50:45.133Z,94974.38
2023-03-29T18:53:11.545Z,94981.75
2023-03-29T18:55:38.067Z,94979.09
2023-03-29T18:58:04.474Z,94981.13
2023-03-29T19:00:33.879Z,94981.13
2023-03-29T19:03:02.777Z,94990.34
2023-03-29T19:05:30.458Z,94993.44
2023-03-29T19:07:59.155Z,94996.28
2023-03-29T19:10:25.605Z,95004.09
2023-03-29T19:12:55.015Z,95009.81
2023-03-29T19:15:23.793Z,95011.66
2023-03-29T19:17:50.752Z,95021.72
2023-03-29T19:20:17.417Z,95025.19
2023-03-29T19:22:44.123Z,95027.66
2023-03-29T19:25:10.709Z,95033.38
2023-03-29T19:27:37.645Z,95029.84
2023-03-29T19:30:06.631Z,95036.41
2023-03-29T19:32:33.832Z,95038.47
2023-03-29T19:35:00.487Z,95030.47
2023-03-29T19:37:26.991Z,95031.06
2023-03-29T19:39:55.758Z,95044.78
2023-03-29T19:42:22.128Z,95052.94
2023-03-29T19:44:49.156Z,95061.97
2023-03-29T19:47:17.091Z,95051.31
2023-03-29T19:49:43.532Z,95052.31
2023-03-29T19:52:09.947Z,95049.03
2023-03-29T19:54:36.400Z,95052.72
2023-03-29T19:57:07.117Z,95046.59
2023-03-29T19:59:33.717Z,95050.47
2023-03-29T20:02:00.265Z,95054.16
2023-03-29T20:04:26.642Z,95042.47
2023-03-29T20:06:53.052Z,95040.84
2023-03-29T20:09:19.617Z,95040.00
2023-03-29T20:11:46.719Z,95029.16
2023-03-29T20:14:13.170Z,95032.25
2023-03-29T20:16:39.795Z,95021.59
2023-03-29T20:19:06.177Z,95024.47
2023-03-29T20:21:32.901Z,95030.78
2023-03-29T20:23:59.371Z,95021.97
2023-03-29T20:26:25.722Z,95020.34
2023-03-29T20:28:52.078Z,95013.38
2023-03-29T20:31:18.734Z,95011.75
2023-03-29T20:33:45.132Z,95008.25
2023-03-29T20:36:11.600Z,95000.28
2023-03-29T20:38:38.080Z,95000.47
2023-03-29T20:41:05.132Z,94991.88
2023-03-29T20:43:32.303Z,94987.56
2023-03-29T20:45:58.835Z,94980.63
2023-03-29T20:48:25.253Z,94968.31
2023-03-29T20:50:51.830Z,94968.72
2023-03-29T20:53:18.627Z,94971.78
2023-03-29T20:55:46.392Z,94970.38
2023-03-29T20:58:12.764Z,94968.47
2023-03-29T21:00:39.143Z,94963.94
2023-03-29T21:03:05.744Z,94966.78
2023-03-29T21:05:32.259Z,94966.72
2023-03-29T21:07:58.694Z,94962.03
2023-03-29T21:10:25.074Z,94971.56
2023-03-29T21:12:53.869Z,94958.03
2023-03-29T21:15:20.263Z,94955.66
2023-03-29T21:17:46.704Z,94952.84
2023-03-29T21:20:13.097Z,94964.31
2023-03-29T21:22:39.629Z,94960.81
2023-03-29T21:25:06.442Z,94970.25
2023-03-29T21:27:32.826Z,94967.38
2023-03-29T21:29:59.397Z,94963.06
2023-03-29T21:32:25.863Z,94941.44
2023-03-29T21:34:52.239Z,94941.00
2023-03-29T21:37:18.581Z,94938.34
2023-03-29T21:39:45.204Z,94948.56
2023-03-29T21:42:11.531Z,94956.63
2023-03-29T21:44:38.257Z,94951.53
2023-03-29T21:47:04.838Z,94954.66
2023-03-29T21:49:31.250Z,94950.22
2023-03-29T21:51:57.645Z,94960.25
2023-03-29T21:54:24.173Z,94944.53
2023-03-29T21:56:50.566Z,94931.84
2023-03-29T21:59:16.970Z,94917.31
2023-03-29T22:01:43.394Z,94906.88
2023-03-29T22:04:09.990Z,94899.94
2023-03-29T22:06:36.690Z,94905.69
2023-03-29T22:09:03.083Z,94909.97
2023-03-29T22:11:29.427Z,94905.69
2023-03-29T22:13:56.126Z,94902.41
2023-03-29T22:16:22.899Z,94908.75
2023-03-29T22:18:49.723Z,94904.88
2023-03-29T22:21:16.329Z,94903.03
2023-03-29T22:23:42.742Z,94894.00
2023-03-29T22:26:09.279Z,94895.88
2023-03-29T22:28:35.624Z,94897.28
2023-03-29T22:31:02.264Z,94889.91
2023-03-29T22:33:28.755Z,94874.94
2023-03-29T22:35:55.523Z,94862.28
2023-03-29T22:38:21.910Z,94863.50
2023-03-29T22:40:50.653Z,94865.16
2023-03-29T22:43:19.432Z,94870.47
2023-03-29T22:45:46.167Z,94872.53
2023-03-29T22:48:12.539Z,94869.66
2023-03-29T22:50:39.152Z,94879.88
2023-03-29T22:53:05.535Z,94878.47
2023-03-29T22:55:31.915Z,94867.44
2023-03-29T22:57:58.412Z,94874.97
2023-03-29T23:00:24.812Z,94886.47
2023-03-29T23:02:51.350Z,94874.56
2023-03-29T23:05:17.820Z,94874.38
2023-03-29T23:07:44.392Z,94897.94
2023-03-29T23:10:10.767Z,94901.34
2023-03-29T23:12:37.236Z,94922.28
2023-03-29T23:15:03.588Z,94920.28
2023-03-29T23:17:30.082Z,94904.56
2023-03-29T23:19:56.518Z,94909.91
2023-03-29T23:22:22.872Z,94920.97
2023-03-29T23:24:49.430Z,94917.31
2023-03-29T23:27:15.850Z,94916.72
2023-03-29T23:29:42.242Z,94913.25
2023-03-29T23:32:08.957Z,94892.00
2023-03-29T23:34:36.354Z,94882.16
2023-03-29T23:37:02.861Z,94882.16
2023-03-29T23:39:29.469Z,94875.19
2023-03-29T23:41:56.186Z,94865.59
2023-03-29T23:44:22.579Z,94840.44
2023-03-29T23:46:49.454Z,94852.66
2023-03-29T23:49:15.877Z,94843.28
2023-03-29T23:51:42.295Z,94844.00
2023-03-29T23:54:08.912Z,94833.78
2023-03-29T23:56:35.529Z,94830.50
2023-03-29T23:59:02.033Z,94810.66
